Portada
METAR-TAF:

METAR-TAF

Aeropuertos :

Aeropuerto Internacional de Maiquetía Simón Bolívar

Caracas, Venezuela

latitud: 10-36N, longitud: 066-59W, altitud: 43 m

Observación

El informe se hizo hace 33 minutos, a las 08:00 UTC
Viento calma
Temperatura 22°C
Humedad 94%
Presión 1013 hPa
Visibilidad 10 km o más
Escasas nubes a una altura de 1600 ft

METAR: SVMI 180800Z 00000KT 9999 FEW016 22/21 Q1013

Hora: 04:33 (08:33 UTC)

Pronóstico

El informe se hizo hace 16 horas y 33 minutos, a las 16:00 UTC
Pronóstico válido del 17 a las 18 UTC al 18 a las 18 UTC
Viento 10 kt del este
Visibilidad 10 km o más
Escasas nubes a una altura de 1600 ft
Cielo nuboso a una altura de 30000 ft
Evolucionando progresivamente
del 17 a las 18 UTC al 17 a las 22 UTC
Viento 12 kt del este-noreste
Nubes dispersas a una altura de 1600 ft

TAF: SVMI 171600Z 1718/1818 09010KT 9999 FEW016 BKN300 TX30/18Z TN20/07Z BECMG 1718/1722 07012KT SCT016

Observaciones y pronósticos meteorológicos de más de 4000 aeropuertos (mensajes METAR y TAF).

Los puntos amarillos y rojos representan las estaciones disponibles.

Ponga el ratón en el punto deseado para ver el nombre de la estación.

Haga clic para ver las observaciones y los pronósticos meteorológicos.

Para cambiar el mapa : haga clic en los botones verdes con una cruz de color negro para hacer un zoom, en el botón verde con un guión para alejar o en las flechas verdes para mapas adyacentes.


METAR-TAF: